MMHO/HMO METAR and TAF weather

Enter ICAO airport designator
Station Type Date Time Source
MMHO METAR 2019/10/14 05:44 UTC NOAA

MMHO 140544Z 14006KT 10SM FEW080 BKN100 26/20 A2990 RMK SLP119 52001 910 8/070 HZY


Station Type Date Time Source
MMHO Decoded METAR 2019/10/14 05:44 UTC NOAA

Hermosillo, Son., Mexico (MMHO) 29-04N 110-57W
Oct 14, 2019 - 01:44 AM EDT / 2019.10.14 0544 UTC
Wind: from the SE (140 degrees) at 7 MPH (6 KT):0
Visibility: 10 mile(s):0
Sky conditions: mostly cloudy
Temperature: 78 F (26 C)
Dew Point: 68 F (20 C)
Relative Humidity: 69%
Pressure (altimeter): 29.9 in. Hg (1012 hPa)
Pressure tendency: 0.00 inches (0.1 hPa) higher than three hours ago
ob: MMHO 140544Z 14006KT 10SM FEW080 BKN100 26/20 A2990 RMK SLP119 52001 910 8/070 HZY
cycle: 5

Station Type Date Time Source
MMHO TAF 2019/10/14 06:59 UTC NOAA

TAF MMHO 140459Z 1406/1506 13005KT P6SM SCT080 BKN250
FM141700 24010KT P6SM SCT100 BKN250
FM150200 23005KT P6SM BKN250

Example: see airport list